Time;durP1;ratioP1;P1;durP2;ratioP2;P2;SDS_P1;SDS_P2;PMS_P1;PMS_P2;Temp;Humidity;BMP_temperature;BMP_pressure;BME280_temperature;BME280_humidity;BME280_pressure;Samples;Min_cycle;Max_cycle;Signal;HPM_P1;HPM_P2
2022/04/11 00:00:17;;;;;;;2.05;1.00;;;18.20;53.40;;;;;;6194301;23;20280;-85
2022/04/11 00:02:43;;;;;;;1.83;0.95;;;18.20;53.50;;;;;;6246095;23;20133;-85
2022/04/11 00:05:09;;;;;;;2.05;1.10;;;18.20;53.50;;;;;;6246007;23;20180;-86
2022/04/11 00:07:34;;;;;;;1.95;0.98;;;18.20;53.60;;;;;;6246021;23;20219;-85
2022/04/11 00:10:00;;;;;;;2.25;0.90;;;18.20;53.60;;;;;;6194786;23;20148;-86
2022/04/11 00:12:28;;;;;;;8.00;1.20;;;18.20;53.50;;;;;;6219783;23;20130;-85
2022/04/11 00:14:58;;;;;;;2.75;1.20;;;18.20;53.50;;;;;;6219390;23;20207;-86
2022/04/11 00:17:26;;;;;;;3.65;1.05;;;18.20;53.60;;;;;;6145443;23;20647;-85
2022/04/11 00:19:53;;;;;;;4.10;1.20;;;18.20;53.50;;;;;;6169254;23;20156;-85
2022/04/11 00:22:21;;;;;;;4.47;1.17;;;18.10;53.60;;;;;;6168517;23;20203;-85
2022/04/11 00:24:49;;;;;;;2.85;1.00;;;18.10;53.60;;;;;;6168441;23;20303;-86
2022/04/11 00:27:16;;;;;;;1.60;1.00;;;18.10;53.60;;;;;;6144560;23;20175;-86
2022/04/11 00:29:43;;;;;;;1.67;0.90;;;18.10;53.50;;;;;;6144167;23;20154;-85
2022/04/11 00:32:11;;;;;;;2.60;1.02;;;18.10;53.50;;;;;;6168691;23;20149;-85
2022/04/11 00:34:38;;;;;;;2.40;1.00;;;18.10;53.60;;;;;;6168618;23;20189;-86
2022/04/11 00:37:05;;;;;;;2.40;0.95;;;18.10;53.50;;;;;;6143967;23;20153;-86
2022/04/11 00:39:32;;;;;;;2.45;1.10;;;18.10;53.60;;;;;;6168663;23;20156;-85
2022/04/11 00:42:01;;;;;;;2.53;1.10;;;18.10;53.50;;;;;;6143525;23;20146;-85
2022/04/11 00:44:28;;;;;;;1.17;0.82;;;18.10;53.40;;;;;;6194774;23;20191;-85
2022/04/11 00:46:55;;;;;;;2.35;0.90;;;18.10;53.40;;;;;;6143785;23;20203;-85
2022/04/11 00:49:21;;;;;;;2.63;0.93;;;18.10;53.50;;;;;;6168234;23;20466;-86
2022/04/11 00:51:47;;;;;;;2.28;1.10;;;18.10;53.60;;;;;;6218918;23;20149;-85
2022/04/11 00:54:13;;;;;;;2.28;0.88;;;18.10;53.60;;;;;;6194631;23;20181;-86
2022/04/11 00:56:39;;;;;;;1.75;0.98;;;18.10;53.60;;;;;;6193838;23;20137;-85
2022/04/11 00:59:05;;;;;;;1.35;1.08;;;18.10;53.70;;;;;;6219090;23;20189;-85
2022/04/11 01:01:31;;;;;;;1.05;0.88;;;18.10;53.60;;;;;;6245796;23;20141;-86
2022/04/11 01:03:57;;;;;;;1.70;0.80;;;18.10;53.60;;;;;;6219240;23;20130;-86
2022/04/11 01:06:23;;;;;;;2.83;1.05;;;18.10;53.70;;;;;;6219171;23;20133;-86
2022/04/11 01:08:49;;;;;;;3.08;0.90;;;18.00;53.40;;;;;;6193901;23;20134;-85
2022/04/11 01:11:19;;;;;;;1.80;1.08;;;18.10;53.50;;;;;;6219023;23;20161;-85
2022/04/11 01:13:46;;;;;;;6.72;1.10;;;18.10;53.60;;;;;;6143802;23;20510;-85
2022/04/11 01:16:12;;;;;;;3.38;1.10;;;18.10;53.60;;;;;;6167942;23;20497;-85
2022/04/11 01:18:39;;;;;;;2.60;0.90;;;18.10;53.60;;;;;;6143841;23;20173;-86
2022/04/11 01:21:09;;;;;;;1.40;1.00;;;18.10;53.50;;;;;;6168658;23;20161;-85
2022/04/11 01:23:35;;;;;;;4.63;1.17;;;18.10;53.50;;;;;;6144245;23;20177;-85
2022/04/11 01:26:02;;;;;;;2.88;1.00;;;18.10;53.70;;;;;;6143670;23;20157;-86
2022/04/11 01:28:28;;;;;;;1.52;1.00;;;18.10;53.60;;;;;;6218952;23;20217;-86
2022/04/11 01:30:55;;;;;;;2.13;0.90;;;18.10;53.70;;;;;;6195757;23;20149;-86
2022/04/11 01:33:26;;;;;;;1.77;0.90;;;18.10;53.70;;;;;;6220874;23;20134;-86
2022/04/11 01:35:52;;;;;;;2.92;1.15;;;18.10;53.70;;;;;;6220700;23;20140;-86
2022/04/11 01:38:18;;;;;;;1.98;1.10;;;18.10;53.50;;;;;;6221159;23;20122;-85
2022/04/11 01:40:50;;;;;;;1.40;1.08;;;18.10;53.70;;;;;;6196226;23;20141;-84
2022/04/11 01:43:16;;;;;;;1.33;1.00;;;18.00;53.80;;;;;;6195602;23;20148;-84
2022/04/11 01:45:41;;;;;;;1.85;0.73;;;18.00;53.60;;;;;;6195604;23;20153;-86
2022/04/11 01:48:07;;;;;;;2.17;0.75;;;18.00;53.60;;;;;;6247536;23;20465;-85
2022/04/11 01:50:34;;;;;;;1.75;1.02;;;18.00;53.70;;;;;;6220691;23;20134;-85
2022/04/11 01:53:09;;;;;;;1.63;0.98;;;18.10;53.80;;;;;;6220649;23;20161;-86
2022/04/11 01:55:35;;;;;;;2.92;1.40;;;18.00;53.60;;;;;;6195451;23;20255;-85
2022/04/11 01:58:03;;;;;;;2.20;1.17;;;18.10;53.80;;;;;;6195628;23;20196;-86
2022/04/11 02:00:29;;;;;;;2.15;1.27;;;18.00;53.70;;;;;;6195253;23;20197;-86
2022/04/11 02:02:55;;;;;;;1.88;0.93;;;18.00;53.80;;;;;;6220554;23;20221;-86
2022/04/11 02:05:21;;;;;;;3.22;0.98;;;18.00;53.60;;;;;;6195288;23;20176;-85
2022/04/11 02:07:47;;;;;;;3.65;1.20;;;18.10;53.60;;;;;;6171167;23;20235;-85
2022/04/11 02:10:14;;;;;;;2.03;0.80;;;18.00;53.70;;;;;;6195259;23;20224;-85
2022/04/11 02:12:40;;;;;;;1.05;0.98;;;18.00;53.60;;;;;;6220813;23;20152;-85
2022/04/11 02:15:08;;;;;;;1.35;1.00;;;18.10;53.60;;;;;;6195904;23;20177;-85
2022/04/11 02:17:34;;;;;;;1.83;0.85;;;18.00;53.20;;;;;;6221187;23;20558;-85
2022/04/11 02:20:00;;;;;;;1.40;0.90;;;18.00;53.70;;;;;;6221371;23;20189;-86
2022/04/11 02:22:27;;;;;;;1.65;0.80;;;18.00;53.80;;;;;;6221315;23;20189;-84
2022/04/11 02:24:54;;;;;;;3.20;1.15;;;18.00;53.80;;;;;;6121554;23;20466;-85
2022/04/11 02:27:20;;;;;;;1.88;0.88;;;18.00;53.90;;;;;;6145668;23;20153;-85
2022/04/11 02:29:47;;;;;;;2.40;0.95;;;18.00;53.70;;;;;;6144926;23;20228;-86
2022/04/11 02:32:16;;;;;;;4.05;1.13;;;18.00;53.60;;;;;;6220257;23;20130;-85
2022/04/11 02:34:44;;;;;;;1.73;1.00;;;18.00;53.80;;;;;;6145348;23;20243;-85
2022/04/11 02:37:11;;;;;;;1.30;1.00;;;18.00;53.80;;;;;;6169662;23;20208;-86
2022/04/11 02:39:39;;;;;;;2.00;1.10;;;18.00;53.80;;;;;;6169595;23;20153;-85
2022/04/11 02:42:06;;;;;;;1.05;0.85;;;18.00;53.90;;;;;;6144939;23;20153;-85
2022/04/11 02:44:33;;;;;;;1.88;1.20;;;18.00;53.80;;;;;;6145031;23;20164;-85
2022/04/11 02:47:01;;;;;;;1.10;0.98;;;18.00;53.90;;;;;;6120458;23;20651;-86
2022/04/11 02:49:28;;;;;;;2.08;0.90;;;18.00;53.60;;;;;;6169315;23;20149;-86
2022/04/11 02:51:55;;;;;;;1.65;0.98;;;18.00;53.70;;;;;;6144554;23;20581;-85
2022/04/11 02:54:22;;;;;;;1.75;1.05;;;18.00;53.90;;;;;;6119872;23;20211;-85
2022/04/11 02:56:48;;;;;;;2.08;0.82;;;18.00;53.50;;;;;;6144662;23;20152;-85
2022/04/11 02:59:14;;;;;;;1.88;1.10;;;18.00;53.80;;;;;;6119960;23;20193;-85
2022/04/11 03:01:41;;;;;;;1.02;0.93;;;18.00;53.70;;;;;;6194961;23;20157;-85
2022/04/11 03:04:10;;;;;;;1.70;0.90;;;18.00;53.80;;;;;;6119938;23;20156;-85
2022/04/11 03:06:38;;;;;;;2.67;1.08;;;17.90;53.80;;;;;;6169464;23;20153;-85
2022/04/11 03:09:04;;;;;;;2.13;0.90;;;17.90;53.70;;;;;;6169549;23;20228;-85
2022/04/11 03:11:32;;;;;;;2.03;0.98;;;17.90;53.70;;;;;;6219974;23;20157;-86
2022/04/11 03:14:00;;;;;;;2.83;0.90;;;17.90;54.00;;;;;;6169531;23;20181;-85
2022/04/11 03:16:28;;;;;;;1.00;0.90;;;17.90;54.00;;;;;;6144975;23;20161;-85
2022/04/11 03:18:55;;;;;;;1.95;0.90;;;17.90;54.00;;;;;;6144641;23;20448;-85
2022/04/11 03:21:23;;;;;;;1.95;0.98;;;17.90;54.00;;;;;;6120289;23;20180;-85
2022/04/11 03:23:50;;;;;;;1.30;1.00;;;17.90;53.80;;;;;;6169155;23;20154;-85
2022/04/11 03:26:18;;;;;;;2.33;0.95;;;17.90;53.90;;;;;;6144410;23;20476;-85
2022/04/11 03:28:45;;;;;;;1.98;1.05;;;17.90;53.80;;;;;;6169546;23;20149;-86
2022/04/11 03:31:12;;;;;;;3.13;1.00;;;17.90;53.70;;;;;;6144482;23;20513;-86
2022/04/11 03:33:38;;;;;;;2.00;0.85;;;17.90;53.80;;;;;;6144262;23;20152;-85
2022/04/11 03:36:06;;;;;;;1.52;0.85;;;17.90;53.80;;;;;;6169680;23;20146;-86
2022/04/11 03:38:33;;;;;;;1.55;0.80;;;17.90;54.00;;;;;;6169103;23;20160;-86
2022/04/11 03:41:01;;;;;;;2.35;1.08;;;17.90;53.70;;;;;;6144306;23;20149;-85
2022/04/11 03:43:28;;;;;;;1.65;0.90;;;17.90;53.70;;;;;;6119803;23;20153;-85
2022/04/11 03:45:55;;;;;;;2.83;1.00;;;17.90;53.70;;;;;;6119660;23;20157;-85
2022/04/11 03:48:22;;;;;;;1.95;0.95;;;17.90;53.70;;;;;;6120051;23;20600;-85
2022/04/11 03:50:49;;;;;;;1.63;0.70;;;17.90;53.80;;;;;;6169050;23;20176;-85
2022/04/11 03:53:16;;;;;;;2.20;1.00;;;17.80;53.70;;;;;;6168463;23;20153;-85
2022/04/11 03:55:43;;;;;;;2.08;1.00;;;17.90;53.80;;;;;;6168917;23;20657;-86
2022/04/11 03:58:10;;;;;;;1.23;0.98;;;17.90;54.50;;;;;;6168458;23;20519;-85
2022/04/11 04:00:36;;;;;;;1.80;1.20;;;17.90;53.90;;;;;;6168418;23;20205;-85
2022/04/11 04:03:08;;;;;;;1.85;0.88;;;18.00;53.90;;;;;;6194309;23;20168;-85
2022/04/11 04:05:45;;;;;;;2.25;0.90;;;17.90;54.10;;;;;;6145191;23;20157;-86
2022/04/11 04:08:12;;;;;;;1.15;0.98;;;17.90;54.10;;;;;;6120070;23;20153;-85
2022/04/11 04:10:38;;;;;;;1.05;0.90;;;17.90;53.90;;;;;;6194615;23;20129;-86
2022/04/11 04:13:05;;;;;;;4.03;1.10;;;17.90;54.10;;;;;;6194442;23;20199;-85
2022/04/11 04:15:32;;;;;;;1.70;0.88;;;17.80;54.10;;;;;;6143843;23;20219;-86
2022/04/11 04:17:58;;;;;;;1.67;1.05;;;17.90;53.70;;;;;;6143930;23;20589;-85
2022/04/11 04:20:26;;;;;;;1.42;0.98;;;17.90;53.90;;;;;;6168845;23;20299;-86
2022/04/11 04:22:54;;;;;;;2.67;1.00;;;17.90;53.90;;;;;;6144855;23;20160;-86
2022/04/11 04:25:20;;;;;;;1.95;0.80;;;17.90;54.00;;;;;;6168521;23;20519;-86
2022/04/11 04:27:46;;;;;;;1.83;0.80;;;17.80;53.70;;;;;;6194293;23;20148;-86
2022/04/11 04:30:13;;;;;;;1.25;0.80;;;17.90;53.90;;;;;;6194546;23;20152;-86
2022/04/11 04:32:40;;;;;;;1.45;0.80;;;17.90;53.70;;;;;;6219272;23;20493;-86
2022/04/11 04:35:07;;;;;;;1.30;0.80;;;17.90;53.50;;;;;;6219589;23;20620;-86
2022/04/11 04:37:32;;;;;;;2.53;1.10;;;17.90;53.80;;;;;;6194506;23;20210;-86
2022/04/11 04:39:58;;;;;;;2.17;1.13;;;17.90;53.40;;;;;;6169424;23;20636;-86
2022/04/11 04:42:26;;;;;;;2.33;0.80;;;17.90;53.60;;;;;;6194613;23;20180;-86
2022/04/11 04:44:52;;;;;;;0.95;0.85;;;17.90;53.70;;;;;;6219395;23;20133;-86
2022/04/11 04:47:18;;;;;;;2.20;0.80;;;17.90;53.00;;;;;;6219479;23;20148;-86
2022/04/11 04:49:44;;;;;;;1.88;0.90;;;17.90;52.60;;;;;;6219229;23;20558;-85
2022/04/11 04:52:10;;;;;;;0.75;0.75;;;18.00;53.30;;;;;;6169541;23;20175;-86
2022/04/11 04:54:36;;;;;;;3.35;1.00;;;18.00;53.10;;;;;;6169241;23;20176;-86
2022/04/11 04:57:03;;;;;;;1.73;0.73;;;18.00;53.20;;;;;;6192301;23;20136;-86
2022/04/11 04:59:29;;;;;;;0.80;0.75;;;18.00;52.80;;;;;;6217855;23;20238;-86
2022/04/11 05:01:55;;;;;;;1.05;0.70;;;18.10;52.40;;;;;;6192553;23;20153;-85
2022/04/11 05:04:21;;;;;;;0.90;0.90;;;18.10;53.10;;;;;;6194173;23;20596;-86
2022/04/11 05:06:47;;;;;;;1.05;0.75;;;18.10;53.20;;;;;;6195995;23;20157;-86
2022/04/11 05:09:12;;;;;;;1.35;0.63;;;18.10;53.20;;;;;;6221145;23;20126;-85
2022/04/11 05:11:38;;;;;;;1.33;0.80;;;18.10;52.50;;;;;;6171638;23;20145;-86
2022/04/11 05:14:05;;;;;;;2.15;0.70;;;18.10;52.40;;;;;;6173194;23;20173;-86
2022/04/11 05:16:31;;;;;;;1.10;0.80;;;18.30;51.80;;;;;;6197969;23;20144;-87
2022/04/11 05:18:59;;;;;;;1.92;0.73;;;18.20;52.40;;;;;;6203723;23;20144;-87
2022/04/11 05:21:25;;;;;;;3.22;0.85;;;18.20;52.10;;;;;;6222848;23;20126;-87
2022/04/11 05:23:50;;;;;;;1.42;0.90;;;18.20;52.00;;;;;;6172490;23;20205;-87
2022/04/11 05:26:18;;;;;;;1.05;0.85;;;18.20;51.70;;;;;;6248290;23;20138;-87
2022/04/11 05:28:45;;;;;;;1.75;1.02;;;18.20;52.10;;;;;;6196702;23;20134;-88
2022/04/11 05:31:12;;;;;;;1.38;0.70;;;18.20;52.20;;;;;;6196932;23;20189;-87
2022/04/11 05:33:42;;;;;;;0.90;0.80;;;18.20;51.60;;;;;;6145824;23;20149;-87
2022/04/11 05:36:12;;;;;;;3.40;1.00;;;18.20;51.70;;;;;;6171415;23;20154;-88
2022/04/11 05:38:42;;;;;;;1.45;0.90;;;18.20;51.60;;;;;;6171477;23;20149;-87
2022/04/11 05:41:14;;;;;;;1.50;0.95;;;18.20;51.20;;;;;;6147499;23;20157;-88
2022/04/11 05:43:39;;;;;;;1.27;0.80;;;18.30;51.50;;;;;;6171850;23;20153;-87
2022/04/11 05:46:05;;;;;;;0.82;0.80;;;18.20;51.40;;;;;;6196976;23;20133;-88
2022/04/11 05:48:32;;;;;;;1.95;0.77;;;18.30;51.40;;;;;;6171575;23;20152;-88
2022/04/11 05:50:59;;;;;;;1.70;0.90;;;18.30;51.40;;;;;;6172244;23;20561;-86
2022/04/11 05:53:26;;;;;;;1.40;0.65;;;18.40;51.00;;;;;;6145313;23;20154;-87
2022/04/11 05:55:52;;;;;;;0.52;0.52;;;18.40;50.90;;;;;;6171202;23;20584;-87
2022/04/11 05:58:18;;;;;;;1.27;0.80;;;18.30;51.10;;;;;;6197155;23;20176;-87
2022/04/11 06:00:43;;;;;;;1.25;0.70;;;18.30;50.60;;;;;;6222610;23;20189;-86
2022/04/11 06:03:09;;;;;;;1.95;0.73;;;18.40;50.70;;;;;;6221448;23;20126;-87
2022/04/11 06:05:37;;;;;;;1.25;0.80;;;18.30;50.70;;;;;;6170149;23;20245;-87
2022/04/11 06:08:07;;;;;;;0.98;0.88;;;18.30;50.80;;;;;;6195408;23;20150;-87
2022/04/11 06:10:33;;;;;;;1.63;0.60;;;18.40;50.80;;;;;;6170489;23;20153;-87
2022/04/11 06:12:59;;;;;;;0.75;0.65;;;18.30;50.30;;;;;;6171258;23;20581;-87
2022/04/11 06:15:29;;;;;;;1.85;0.80;;;18.30;50.40;;;;;;6196022;23;20188;-87
2022/04/11 06:18:00;;;;;;;0.77;0.70;;;18.40;51.30;;;;;;6170077;23;20153;-88
2022/04/11 06:20:33;;;;;;;1.88;0.80;;;18.40;49.90;;;;;;6120821;23;20597;-87
2022/04/11 06:23:06;;;;;;;1.27;0.65;;;18.30;49.50;;;;;;6170787;23;20175;-87
2022/04/11 06:25:35;;;;;;;1.77;0.57;;;18.40;49.10;;;;;;6145242;23;20203;-87
2022/04/11 06:28:05;;;;;;;1.58;0.80;;;18.40;50.00;;;;;;6169855;23;20201;-87
2022/04/11 06:30:38;;;;;;;2.38;0.88;;;18.40;50.50;;;;;;6170155;23;20209;-86
2022/04/11 06:33:04;;;;;;;1.15;0.77;;;18.30;49.60;;;;;;6169102;23;20157;-87
2022/04/11 06:35:35;;;;;;;1.38;0.70;;;18.30;50.90;;;;;;6172653;23;20185;-87
2022/04/11 06:38:07;;;;;;;1.20;0.80;;;18.30;49.80;;;;;;6146539;23;20157;-87
2022/04/11 06:40:32;;;;;;;0.73;0.60;;;18.40;50.30;;;;;;6173257;23;20240;-88
2022/04/11 06:43:03;;;;;;;1.02;0.55;;;18.40;49.50;;;;;;6197743;23;20145;-87
2022/04/11 06:45:31;;;;;;;1.15;0.65;;;18.40;50.50;;;;;;6146771;23;20172;-86
2022/04/11 06:48:00;;;;;;;1.55;0.68;;;18.30;50.00;;;;;;6222917;23;20130;-86
2022/04/11 06:50:30;;;;;;;1.05;0.70;;;18.30;50.30;;;;;;6148061;23;20154;-86
2022/04/11 06:52:56;;;;;;;0.88;0.70;;;18.40;49.60;;;;;;6172942;23;20240;-88
2022/04/11 06:55:22;;;;;;;1.02;0.60;;;18.30;50.30;;;;;;6198185;23;20245;-87
2022/04/11 06:57:48;;;;;;;1.98;0.80;;;18.40;49.20;;;;;;6199290;23;20188;-88
2022/04/11 07:00:18;;;;;;;1.17;0.80;;;18.40;50.10;;;;;;6174673;23;20571;-86
2022/04/11 07:02:47;;;;;;;0.98;0.65;;;18.40;48.40;;;;;;6148812;23;20157;-88
2022/04/11 07:05:12;;;;;;;2.38;0.90;;;18.40;48.30;;;;;;6148625;23;20474;-88
2022/04/11 07:07:41;;;;;;;0.80;0.80;;;18.50;48.40;;;;;;6199360;23;20187;-88
2022/04/11 07:10:11;;;;;;;0.70;0.70;;;18.50;47.80;;;;;;6125904;23;20157;-87
2022/04/11 07:12:41;;;;;;;2.08;0.80;;;18.60;49.60;;;;;;6148476;23;20159;-88
2022/04/11 07:15:09;;;;;;;0.77;0.77;;;18.50;48.20;;;;;;6149578;23;20181;-87
2022/04/11 07:17:37;;;;;;;0.80;0.60;;;18.50;48.80;;;;;;6150000;23;20578;-86
2022/04/11 07:20:06;;;;;;;1.05;0.70;;;18.50;49.20;;;;;;6174894;23;20149;-87
2022/04/11 07:22:32;;;;;;;1.90;0.65;;;18.50;49.00;;;;;;6174271;23;20149;-87
2022/04/11 07:24:59;;;;;;;0.77;0.70;;;18.50;47.30;;;;;;6224055;23;20169;-87
2022/04/11 07:27:24;;;;;;;0.60;0.60;;;18.50;47.60;;;;;;6198758;23;20196;-86
2022/04/11 07:29:50;;;;;;;0.95;0.73;;;18.60;48.30;;;;;;6225044;23;20184;-87
2022/04/11 07:32:17;;;;;;;1.38;0.65;;;18.60;48.20;;;;;;6199312;23;20159;-87
2022/04/11 07:34:42;;;;;;;0.90;0.70;;;18.60;47.40;;;;;;6250521;23;20616;-87
2022/04/11 07:37:08;;;;;;;0.82;0.68;;;18.60;47.70;;;;;;6250930;23;20136;-88
2022/04/11 07:39:47;;;;;;;1.58;0.95;;;18.60;47.30;;;;;;6199066;23;20169;-87
2022/04/11 07:42:14;;;;;;;1.52;0.80;;;18.60;47.60;;;;;;6146500;23;20145;-87
2022/04/11 07:44:45;;;;;;;0.65;0.63;;;18.60;47.70;;;;;;6146241;23;20180;-86
2022/04/11 07:47:14;;;;;;;1.77;0.60;;;18.60;46.80;;;;;;6148857;23;20149;-87
2022/04/11 07:49:40;;;;;;;0.70;0.70;;;18.60;47.00;;;;;;6197445;23;20136;-87
2022/04/11 07:52:07;;;;;;;1.08;0.75;;;18.60;48.00;;;;;;6224266;23;20126;-86
2022/04/11 07:54:33;;;;;;;1.17;0.90;;;18.60;47.60;;;;;;6198488;23;20204;-87
2022/04/11 07:57:05;;;;;;;1.92;1.00;;;18.70;47.90;;;;;;6223548;23;20528;-87
2022/04/11 07:59:31;;;;;;;1.13;0.85;;;18.70;47.40;;;;;;6199268;23;20197;-87
2022/04/11 08:01:57;;;;;;;0.60;0.60;;;18.70;48.30;;;;;;6198098;23;20153;-89
2022/04/11 08:04:23;;;;;;;1.00;0.80;;;18.70;47.50;;;;;;6223095;23;20553;-88
2022/04/11 08:06:49;;;;;;;1.42;0.80;;;18.70;47.50;;;;;;6197574;23;20212;-87
2022/04/11 08:09:14;;;;;;;3.15;0.88;;;18.60;47.30;;;;;;6196827;23;20549;-87
2022/04/11 08:11:40;;;;;;;1.88;0.80;;;18.70;45.30;;;;;;6220685;23;20168;-87
2022/04/11 08:14:06;;;;;;;1.10;0.75;;;18.70;46.10;;;;;;6195123;23;20165;-86
2022/04/11 08:16:31;;;;;;;0.68;0.68;;;18.70;48.50;;;;;;6220726;23;20708;-87
2022/04/11 08:18:57;;;;;;;1.65;0.88;;;18.70;47.80;;;;;;6194119;23;20142;-86
2022/04/11 08:21:23;;;;;;;1.13;0.68;;;18.70;46.10;;;;;;6193913;23;20149;-86
2022/04/11 08:23:48;;;;;;;0.90;0.73;;;18.80;46.20;;;;;;6194004;23;20144;-86
2022/04/11 08:26:15;;;;;;;1.00;0.70;;;18.80;48.00;;;;;;6219875;23;20130;-87
2022/04/11 08:28:40;;;;;;;1.42;0.80;;;18.70;47.20;;;;;;6219474;23;20129;-86
2022/04/11 08:31:07;;;;;;;0.60;0.60;;;18.70;47.70;;;;;;6169321;23;20145;-87
2022/04/11 08:33:33;;;;;;;1.15;0.85;;;18.70;46.50;;;;;;6195372;23;20167;-86
2022/04/11 08:36:03;;;;;;;2.22;0.80;;;18.70;47.20;;;;;;6195004;23;20256;-86
2022/04/11 08:38:28;;;;;;;1.27;0.98;;;18.70;45.90;;;;;;6120800;23;20511;-86
2022/04/11 08:40:54;;;;;;;0.93;0.70;;;18.80;46.70;;;;;;6170418;23;20130;-86
2022/04/11 08:43:22;;;;;;;2.00;0.70;;;18.80;47.30;;;;;;6220319;23;20133;-85
2022/04/11 08:45:55;;;;;;;1.05;0.77;;;18.80;46.50;;;;;;6169454;23;20141;-87
2022/04/11 08:48:22;;;;;;;2.05;0.70;;;18.80;46.90;;;;;;6145468;23;20188;-86
2022/04/11 08:50:48;;;;;;;2.25;0.85;;;18.70;47.30;;;;;;6221164;23;20216;-86
2022/04/11 08:53:14;;;;;;;0.95;0.70;;;18.80;46.30;;;;;;6171081;23;20138;-86
2022/04/11 08:55:40;;;;;;;0.90;0.77;;;18.80;47.10;;;;;;6171078;23;20173;-85
2022/04/11 08:58:06;;;;;;;0.95;0.80;;;18.80;47.00;;;;;;6195327;23;20137;-85
2022/04/11 09:00:32;;;;;;;0.93;0.82;;;18.80;46.80;;;;;;6195901;23;20651;-85
2022/04/11 09:02:58;;;;;;;0.98;0.82;;;18.80;46.50;;;;;;6195124;23;20203;-86
2022/04/11 09:05:25;;;;;;;1.23;0.90;;;18.80;46.40;;;;;;6195009;23;20153;-86
2022/04/11 09:07:53;;;;;;;0.98;0.80;;;18.80;46.80;;;;;;6195675;23;20583;-86
2022/04/11 09:10:24;;;;;;;1.85;1.00;;;18.90;46.00;;;;;;6171145;23;20586;-86
2022/04/11 09:12:52;;;;;;;1.10;0.80;;;18.80;46.50;;;;;;6145380;23;20168;-86
2022/04/11 09:15:18;;;;;;;0.50;0.50;;;18.80;46.20;;;;;;6193465;23;20247;-86
2022/04/11 09:17:45;;;;;;;0.77;0.65;;;18.90;46.40;;;;;;6192849;23;20153;-86
2022/04/11 09:20:14;;;;;;;0.82;0.80;;;18.90;46.40;;;;;;6192600;23;20145;-86
2022/04/11 09:22:41;;;;;;;1.17;0.88;;;18.90;47.40;;;;;;6194303;23;20142;-86
2022/04/11 09:25:08;;;;;;;1.33;0.70;;;18.80;47.70;;;;;;6219201;23;20157;-86
2022/04/11 09:27:34;;;;;;;1.95;0.70;;;18.80;46.50;;;;;;6169360;23;20180;-86
2022/04/11 09:30:00;;;;;;;0.70;0.55;;;18.80;45.70;;;;;;6194387;23;20142;-86
2022/04/11 09:32:26;;;;;;;1.45;0.70;;;18.90;45.40;;;;;;6194830;23;20138;-85
2022/04/11 09:34:53;;;;;;;1.27;0.88;;;18.90;45.70;;;;;;6197830;23;20267;-86
2022/04/11 09:37:20;;;;;;;2.10;1.00;;;19.00;45.70;;;;;;6173366;23;20146;-85
2022/04/11 09:39:53;;;;;;;1.15;0.60;;;18.90;45.50;;;;;;6221689;23;20122;-86
2022/04/11 09:42:30;;;;;;;1.95;0.85;;;18.90;46.40;;;;;;6196959;23;20611;-86
2022/04/11 09:45:03;;;;;;;1.98;0.77;;;18.80;46.70;;;;;;6196564;23;20141;-86
2022/04/11 09:47:30;;;;;;;0.95;0.80;;;18.90;46.20;;;;;;6162122;23;20229;-85
2022/04/11 09:49:57;;;;;;;1.20;0.82;;;18.90;46.20;;;;;;6161775;23;20151;-85
2022/04/11 09:52:26;;;;;;;1.08;0.75;;;18.80;46.60;;;;;;6186577;23;20217;-86
2022/04/11 09:54:57;;;;;;;1.27;0.90;;;18.90;45.40;;;;;;6137225;23;20190;-86
2022/04/11 09:57:26;;;;;;;0.75;0.70;;;18.90;45.50;;;;;;6089576;23;20237;-85
2022/04/11 09:59:52;;;;;;;0.93;0.82;;;18.90;46.10;;;;;;6113039;23;20208;-85
2022/04/11 10:02:18;;;;;;;1.17;0.80;;;18.90;45.90;;;;;;6186713;23;20155;-85
2022/04/11 10:04:46;;;;;;;0.95;0.88;;;19.00;47.10;;;;;;6161217;23;20155;-85
2022/04/11 10:07:12;;;;;;;1.27;0.70;;;18.90;46.80;;;;;;6136032;23;20151;-85
2022/04/11 10:09:44;;;;;;;2.88;0.80;;;18.80;46.60;;;;;;6161204;23;20147;-85
2022/04/11 10:12:11;;;;;;;0.95;0.70;;;18.90;45.70;;;;;;6114811;23;20161;-86
2022/04/11 10:14:36;;;;;;;1.52;0.80;;;18.90;44.20;;;;;;6136995;23;20170;-86
2022/04/11 10:17:06;;;;;;;2.35;0.85;;;18.90;45.60;;;;;;6160795;23;20186;-86
2022/04/11 10:19:38;;;;;;;1.00;0.85;;;19.00;44.70;;;;;;6111028;23;20229;-86
2022/04/11 10:22:05;;;;;;;1.15;0.88;;;19.00;45.20;;;;;;6136940;23;20162;-86
2022/04/11 10:24:40;;;;;;;2.28;1.05;;;18.90;45.30;;;;;;6185461;23;20203;-90
2022/04/11 10:27:23;;;;;;;1.02;0.82;;;18.90;46.20;;;;;;6172647;23;20224;-87
2022/04/11 10:29:50;;;;;;;0.98;0.82;;;18.90;46.20;;;;;;6171207;23;20141;-84
2022/04/11 10:32:18;;;;;;;1.45;0.80;;;18.80;46.40;;;;;;6172515;23;20229;-85
2022/04/11 10:34:51;;;;;;;0.80;0.80;;;18.90;46.00;;;;;;6221287;23;20168;-85
2022/04/11 10:37:17;;;;;;;0.82;0.63;;;18.80;45.30;;;;;;6196799;23;20129;-85
2022/04/11 10:39:45;;;;;;;1.60;0.82;;;18.90;46.20;;;;;;6196534;23;20134;-85
2022/04/11 10:42:12;;;;;;;2.88;0.80;;;18.90;45.60;;;;;;6248705;23;20129;-85
2022/04/11 10:44:45;;;;;;;1.48;0.80;;;18.90;45.80;;;;;;6173312;23;20569;-86
2022/04/11 10:47:31;;;;;;;1.20;0.85;;;18.90;44.30;;;;;;6197550;23;20141;-84
2022/04/11 10:50:18;;;;;;;1.65;0.75;;;18.90;46.30;;;;;;6171205;23;20219;-85
2022/04/11 10:52:43;;;;;;;4.45;0.80;;;18.90;46.40;;;;;;6220045;23;20160;-85
2022/04/11 10:55:12;;;;;;;0.80;0.60;;;18.90;44.50;;;;;;6220068;23;20196;-84
2022/04/11 10:57:43;;;;;;;1.25;0.70;;;18.90;46.20;;;;;;6195739;23;20130;-85
2022/04/11 11:00:22;;;;;;;2.45;0.80;;;19.00;46.20;;;;;;6219940;23;20185;-84
2022/04/11 11:03:06;;;;;;;1.77;0.70;;;19.00;46.00;;;;;;6219913;23;20149;-85
2022/04/11 11:05:44;;;;;;;0.90;0.85;;;19.00;45.70;;;;;;6194920;23;20199;-86
2022/04/11 11:08:27;;;;;;;1.48;0.90;;;19.00;46.50;;;;;;6170998;23;20145;-84
2022/04/11 11:11:02;;;;;;;0.75;0.60;;;19.00;46.10;;;;;;6221054;23;20134;-84
2022/04/11 11:13:39;;;;;;;0.80;0.80;;;19.00;46.30;;;;;;6171621;23;20628;-84
2022/04/11 11:16:25;;;;;;;2.00;0.70;;;19.00;47.10;;;;;;6171245;23;20263;-85
2022/04/11 11:19:09;;;;;;;2.10;0.70;;;18.90;45.60;;;;;;6196233;23;20138;-87
2022/04/11 11:21:57;;;;;;;1.35;1.02;;;19.00;46.70;;;;;;6196582;23;20134;-87
2022/04/11 11:24:23;;;;;;;1.73;0.77;;;19.10;46.10;;;;;;6224920;23;20137;-86
2022/04/11 11:27:05;;;;;;;1.05;0.70;;;19.00;46.60;;;;;;6219882;23;20148;-86
2022/04/11 11:29:33;;;;;;;2.83;0.95;;;19.00;46.10;;;;;;6221129;23;20615;-86
2022/04/11 11:32:01;;;;;;;1.25;0.73;;;19.00;46.00;;;;;;6195536;23;20146;-86
2022/04/11 11:34:28;;;;;;;2.38;0.80;;;19.00;45.50;;;;;;6196029;23;20319;-85
2022/04/11 11:37:01;;;;;;;1.40;0.80;;;19.00;46.60;;;;;;6195065;23;20550;-85
2022/04/11 11:39:27;;;;;;;2.13;0.80;;;19.00;46.20;;;;;;6171512;23;20219;-86
2022/04/11 11:41:55;;;;;;;2.15;0.85;;;19.10;45.80;;;;;;6169737;23;20216;-86
2022/04/11 11:44:20;;;;;;;3.95;0.90;;;19.00;45.70;;;;;;6169694;23;20151;-86
2022/04/11 11:46:50;;;;;;;2.00;0.85;;;19.10;45.70;;;;;;6194423;23;20153;-87
2022/04/11 11:49:16;;;;;;;1.38;0.85;;;19.10;45.80;;;;;;6220128;23;20130;-87
2022/04/11 11:51:42;;;;;;;0.95;0.70;;;19.10;45.30;;;;;;6170639;23;20145;-86
2022/04/11 11:54:08;;;;;;;2.28;0.70;;;19.00;45.60;;;;;;6219725;23;20170;-87
2022/04/11 11:56:45;;;;;;;1.92;0.85;;;19.00;44.80;;;;;;6195738;23;20136;-86
2022/04/11 11:59:11;;;;;;;1.52;0.90;;;19.00;46.40;;;;;;6224720;23;20188;-87
2022/04/11 12:01:40;;;;;;;1.60;0.75;;;19.00;46.30;;;;;;6171222;23;20184;-84
2022/04/11 12:04:20;;;;;;;1.20;0.90;;;19.10;45.70;;;;;;6249725;23;20137;-86
2022/04/11 12:06:57;;;;;;;2.75;0.70;;;19.00;45.90;;;;;;6223026;23;20133;-85
2022/04/11 12:09:23;;;;;;;2.17;1.00;;;19.10;45.70;;;;;;6145831;23;20142;-87
2022/04/11 12:11:57;;;;;;;1.23;0.60;;;19.00;46.20;;;;;;6248034;23;20126;-86
2022/04/11 12:14:23;;;;;;;2.05;0.77;;;19.10;45.20;;;;;;6171025;23;20184;-86
2022/04/11 12:16:56;;;;;;;1.95;0.80;;;19.10;46.00;;;;;;6199296;23;20154;-86
2022/04/11 12:19:35;;;;;;;2.28;0.90;;;19.00;46.40;;;;;;6198557;23;20157;-86
2022/04/11 12:22:10;;;;;;;0.90;0.73;;;19.10;46.10;;;;;;6196778;23;20149;-86
2022/04/11 12:24:36;;;;;;;3.50;0.77;;;19.10;45.50;;;;;;6196947;23;20147;-86
2022/04/11 12:27:02;;;;;;;1.65;0.60;;;19.10;46.00;;;;;;6223007;23;20149;-87
2022/04/11 12:29:40;;;;;;;1.73;0.77;;;19.10;45.50;;;;;;6252242;23;20441;-86
2022/04/11 12:32:14;;;;;;;1.65;0.70;;;19.00;45.20;;;;;;6224701;23;20172;-85
2022/04/11 12:34:45;;;;;;;1.45;0.70;;;19.10;45.70;;;;;;6172420;23;20200;-86
2022/04/11 12:37:12;;;;;;;1.75;0.85;;;19.10;46.10;;;;;;6132553;23;20158;-86
2022/04/11 12:40:01;;;;;;;3.15;0.82;;;19.10;45.80;;;;;;6157181;23;20147;-86
2022/04/11 12:42:28;;;;;;;2.63;0.75;;;19.10;45.30;;;;;;6111484;23;20166;-86
2022/04/11 12:45:07;;;;;;;1.77;0.98;;;19.00;45.50;;;;;;6109267;23;20153;-87
2022/04/11 12:47:43;;;;;;;2.53;0.82;;;19.10;45.80;;;;;;6063995;23;20155;-87
2022/04/11 12:50:20;;;;;;;1.50;0.70;;;19.00;45.90;;;;;;6134016;23;20139;-87
2022/04/11 12:52:46;;;;;;;2.35;0.75;;;19.10;45.90;;;;;;6159260;23;20210;-85